createdAt,value
2017-09-12T00:02:06.119Z,8.00
2017-09-12T00:04:34.384Z,7.80
2017-09-12T00:07:01.865Z,7.80
2017-09-12T00:09:30.095Z,7.90
2017-09-12T00:11:57.595Z,7.90
2017-09-12T00:14:25.834Z,7.80
2017-09-12T00:16:53.295Z,7.80
2017-09-12T00:19:20.788Z,7.90
2017-09-12T00:21:49.060Z,7.90
2017-09-12T00:24:17.301Z,7.90
2017-09-12T00:26:44.769Z,7.90
2017-09-12T00:29:12.260Z,7.70
2017-09-12T00:31:40.489Z,7.70
2017-09-12T00:34:07.998Z,7.70
2017-09-12T00:36:36.227Z,7.70
2017-09-12T00:39:03.734Z,7.70
2017-09-12T00:41:31.963Z,7.60
2017-09-12T00:43:59.455Z,7.50
2017-09-12T00:46:27.711Z,7.70
2017-09-12T00:48:55.174Z,7.70
2017-09-12T00:51:22.702Z,7.60
2017-09-12T00:53:50.179Z,7.60
2017-09-12T00:56:17.681Z,7.80
2017-09-12T00:58:45.146Z,7.80
2017-09-12T01:01:12.660Z,7.70
2017-09-12T01:03:40.124Z,7.80
2017-09-12T01:06:07.594Z,7.70
2017-09-12T01:08:35.869Z,7.80
2017-09-12T01:11:03.363Z,7.70
2017-09-12T01:13:30.859Z,7.60
2017-09-12T01:15:58.346Z,7.30
2017-09-12T01:18:25.817Z,7.30
2017-09-12T01:20:54.087Z,7.50
2017-09-12T01:23:22.328Z,7.60
2017-09-12T01:25:49.831Z,7.60
2017-09-12T01:28:18.074Z,7.50
2017-09-12T01:30:45.597Z,7.50
2017-09-12T01:33:13.079Z,7.50
2017-09-12T01:35:40.597Z,7.40
2017-09-12T01:38:08.064Z,7.40
2017-09-12T01:40:35.540Z,7.30
2017-09-12T01:43:03.020Z,7.30
2017-09-12T01:45:30.492Z,7.40
2017-09-12T01:47:58.057Z,7.30
2017-09-12T01:50:25.533Z,7.30
2017-09-12T01:52:53.787Z,7.50
2017-09-12T01:55:21.266Z,7.50
2017-09-12T01:57:49.529Z,7.30
2017-09-12T02:00:17.038Z,7.30
2017-09-12T02:02:44.518Z,7.10
2017-09-12T02:05:11.982Z,7.10
2017-09-12T02:07:39.469Z,7.20
2017-09-12T02:10:06.960Z,7.40
2017-09-12T02:12:34.441Z,7.50
2017-09-12T02:15:01.924Z,7.60
2017-09-12T02:17:29.418Z,7.50
2017-09-12T02:19:57.667Z,7.80
2017-09-12T02:22:25.135Z,7.80
2017-09-12T02:24:52.623Z,7.80
2017-09-12T02:27:20.093Z,7.90
2017-09-12T02:29:47.595Z,7.90
2017-09-12T02:32:15.059Z,7.90
2017-09-12T02:34:42.555Z,7.90
2017-09-12T02:37:10.806Z,7.90
2017-09-12T02:39:38.302Z,7.90
2017-09-12T02:42:05.791Z,7.80
2017-09-12T02:44:33.305Z,7.80
2017-09-12T02:47:00.786Z,7.80
2017-09-12T02:49:28.278Z,7.70
2017-09-12T02:51:55.742Z,7.80
2017-09-12T02:54:23.980Z,7.70
2017-09-12T02:56:51.482Z,7.70
2017-09-12T02:59:19.730Z,7.80
2017-09-12T03:01:47.207Z,7.80
2017-09-12T03:04:14.739Z,7.70
2017-09-12T03:06:42.246Z,7.70
2017-09-12T03:09:10.480Z,7.60
2017-09-12T03:11:37.976Z,7.60
2017-09-12T03:14:05.462Z,7.60
2017-09-12T03:16:32.968Z,7.70
2017-09-12T03:19:00.456Z,7.80
2017-09-12T03:21:27.943Z,7.90
2017-09-12T03:23:55.414Z,7.90
2017-09-12T03:26:22.907Z,7.90
2017-09-12T03:28:50.390Z,7.90
2017-09-12T03:31:18.642Z,7.90
2017-09-12T03:33:46.133Z,7.90
2017-09-12T03:36:14.373Z,7.90
2017-09-12T03:38:41.890Z,8.00
2017-09-12T03:41:09.419Z,7.90
2017-09-12T03:43:37.687Z,7.80
2017-09-12T03:46:05.203Z,7.80
2017-09-12T03:48:32.719Z,7.80
2017-09-12T03:51:00.203Z,7.80
2017-09-12T03:53:27.690Z,7.90
2017-09-12T03:55:55.194Z,7.80
2017-09-12T03:58:22.697Z,7.70
2017-09-12T04:00:50.170Z,7.80
2017-09-12T04:03:17.679Z,7.70
2017-09-12T04:05:45.903Z,7.60
2017-09-12T04:08:13.430Z,7.50
2017-09-12T04:10:41.710Z,7.50
2017-09-12T04:13:09.195Z,7.50
2017-09-12T04:15:36.698Z,7.60
2017-09-12T04:18:04.939Z,7.80
2017-09-12T04:20:32.459Z,7.80
2017-09-12T04:23:00.703Z,7.90
2017-09-12T04:25:29.679Z,7.80
2017-09-12T04:27:57.189Z,7.80
2017-09-12T04:30:24.649Z,7.90
2017-09-12T04:32:52.141Z,7.80
2017-09-12T04:35:19.643Z,8.00
2017-09-12T04:37:47.890Z,8.10
2017-09-12T04:40:15.368Z,8.10
2017-09-12T04:42:42.867Z,8.20
2017-09-12T04:45:10.360Z,8.10
2017-09-12T04:47:37.922Z,8.00
2017-09-12T04:50:05.387Z,8.10
2017-09-12T04:52:32.898Z,8.00
2017-09-12T04:55:00.379Z,8.10
2017-09-12T04:57:27.880Z,8.10
2017-09-12T04:59:55.356Z,8.10
2017-09-12T05:02:23.612Z,8.20
2017-09-12T05:04:51.115Z,8.10
2017-09-12T05:07:18.635Z,8.20
2017-09-12T05:09:46.115Z,8.20
2017-09-12T05:12:14.343Z,8.20
2017-09-12T05:14:41.857Z,8.20
2017-09-12T05:17:10.109Z,8.30
2017-09-12T05:19:37.585Z,8.30
2017-09-12T05:22:05.071Z,8.40
2017-09-12T05:24:32.568Z,8.30
2017-09-12T05:27:00.031Z,8.40
2017-09-12T05:29:27.549Z,8.50
2017-09-12T05:31:55.040Z,8.40
2017-09-12T05:34:22.526Z,8.40
2017-09-12T05:36:50.808Z,8.40
2017-09-12T05:39:19.046Z,8.40
2017-09-12T05:41:46.564Z,8.40
2017-09-12T05:44:14.029Z,8.40
2017-09-12T05:46:41.538Z,8.50
2017-09-12T05:49:08.999Z,9.00
2017-09-12T05:51:36.524Z,9.50
2017-09-12T05:54:04.056Z,9.80
2017-09-12T05:56:31.528Z,10.00
2017-09-12T05:58:59.031Z,10.20
2017-09-12T06:01:26.503Z,10.30
2017-09-12T06:03:54.778Z,9.80
2017-09-12T06:06:22.271Z,9.80
2017-09-12T06:08:49.758Z,10.10
2017-09-12T06:11:17.266Z,10.40
2017-09-12T06:13:45.498Z,10.60
2017-09-12T06:16:12.979Z,10.60
2017-09-12T06:18:40.513Z,10.60
2017-09-12T06:21:07.982Z,10.70
2017-09-12T06:23:35.711Z,10.80
2017-09-12T06:26:03.190Z,10.90
2017-09-12T06:28:30.708Z,10.90
2017-09-12T06:30:58.981Z,11.00
2017-09-12T06:33:27.214Z,11.10
2017-09-12T06:35:54.723Z,11.10
2017-09-12T06:38:22.970Z,10.90
2017-09-12T06:40:50.432Z,10.90
2017-09-12T06:43:17.930Z,11.00
2017-09-12T06:45:45.391Z,11.20
2017-09-12T06:48:12.869Z,11.10
2017-09-12T06:50:40.352Z,11.10
2017-09-12T06:53:07.855Z,11.20
2017-09-12T06:55:35.363Z,10.90
2017-09-12T06:58:02.852Z,11.10
2017-09-12T07:00:31.136Z,11.20
2017-09-12T07:02:59.376Z,11.10
2017-09-12T07:05:26.900Z,11.10
2017-09-12T07:07:54.368Z,11.00
2017-09-12T07:10:21.872Z,11.30
2017-09-12T07:12:49.379Z,11.40
2017-09-12T07:15:16.875Z,11.40
2017-09-12T07:17:44.381Z,11.60
2017-09-12T07:20:12.615Z,11.90
2017-09-12T07:22:40.125Z,11.90
2017-09-12T07:25:07.621Z,11.90
2017-09-12T07:27:35.107Z,11.80
2017-09-12T07:30:03.373Z,12.30
2017-09-12T07:32:30.885Z,12.30
2017-09-12T07:34:58.380Z,12.30
2017-09-12T07:37:25.831Z,12.70
2017-09-12T07:39:53.300Z,12.60
2017-09-12T07:42:20.800Z,12.80
2017-09-12T07:44:48.284Z,12.80
2017-09-12T07:47:15.838Z,12.50
2017-09-12T07:49:43.319Z,12.50
2017-09-12T07:52:10.809Z,12.70
2017-09-12T07:54:39.069Z,12.70
2017-09-12T07:57:06.543Z,12.70
2017-09-12T07:59:34.832Z,12.50
2017-09-12T08:02:03.059Z,12.40
2017-09-12T08:04:30.775Z,12.40
2017-09-12T08:06:58.279Z,12.30
2017-09-12T08:09:25.780Z,12.30
2017-09-12T08:11:53.269Z,12.10
2017-09-12T08:14:20.750Z,12.00
2017-09-12T08:16:48.264Z,11.90
2017-09-12T08:19:16.499Z,11.80
2017-09-12T08:21:43.979Z,11.80
2017-09-12T08:24:11.492Z,11.70
2017-09-12T08:26:38.964Z,11.90
2017-09-12T08:29:06.464Z,12.10
2017-09-12T08:31:33.924Z,12.20
2017-09-12T08:34:01.422Z,12.30
2017-09-12T08:36:28.919Z,12.30
2017-09-12T08:38:56.417Z,12.30
2017-09-12T08:41:24.686Z,12.10
2017-09-12T08:43:52.927Z,12.10
2017-09-12T08:46:20.451Z,12.10
2017-09-12T08:48:47.914Z,12.20
2017-09-12T08:51:15.395Z,12.30
2017-09-12T08:53:42.890Z,12.20
2017-09-12T08:56:10.380Z,12.20
2017-09-12T08:58:37.887Z,12.30
2017-09-12T09:01:05.390Z,12.40
2017-09-12T09:03:33.667Z,12.50
2017-09-12T09:06:01.155Z,12.50
2017-09-12T09:08:28.649Z,12.60
2017-09-12T09:10:56.131Z,12.70
2017-09-12T09:13:24.386Z,12.80
2017-09-12T09:15:51.878Z,12.80
2017-09-12T09:18:20.103Z,12.10
2017-09-12T09:20:47.614Z,12.10
2017-09-12T09:23:15.087Z,11.70
2017-09-12T09:25:42.604Z,11.60
2017-09-12T09:28:10.112Z,11.40
2017-09-12T09:30:37.579Z,11.40
2017-09-12T09:33:05.094Z,11.50
2017-09-12T09:35:33.353Z,11.40
2017-09-12T09:38:00.856Z,11.40
2017-09-12T09:40:28.350Z,11.50
2017-09-12T09:42:55.841Z,11.40
2017-09-12T09:45:23.328Z,11.50
2017-09-12T09:47:50.832Z,11.60
2017-09-12T09:50:18.339Z,11.50
2017-09-12T09:52:45.831Z,11.50
2017-09-12T09:55:13.331Z,11.70
2017-09-12T09:57:40.849Z,12.00
2017-09-12T10:00:08.347Z,12.10
2017-09-12T10:02:35.844Z,12.10
2017-09-12T10:05:03.315Z,12.40
2017-09-12T10:07:30.856Z,12.30
2017-09-12T10:09:58.342Z,12.10
2017-09-12T10:12:25.819Z,12.10
2017-09-12T10:14:53.312Z,12.30
2017-09-12T10:17:21.544Z,12.70
2017-09-12T10:19:49.068Z,12.60
2017-09-12T10:22:16.548Z,12.80
2017-09-12T10:24:44.023Z,12.80
2017-09-12T10:27:11.520Z,13.00
2017-09-12T10:29:39.779Z,13.10
2017-09-12T10:32:07.284Z,13.10
2017-09-12T10:34:34.750Z,13.10
2017-09-12T10:37:02.296Z,13.50
2017-09-12T10:39:29.751Z,13.80
2017-09-12T10:41:57.234Z,13.70
2017-09-12T10:44:24.785Z,13.80
2017-09-12T10:46:52.311Z,13.90
2017-09-12T10:49:20.579Z,14.00
2017-09-12T10:51:48.847Z,14.30
2017-09-12T10:54:17.079Z,14.30
2017-09-12T10:56:44.579Z,14.30
2017-09-12T10:59:12.071Z,14.10
2017-09-12T11:01:39.571Z,13.60
2017-09-12T11:04:07.107Z,13.60
2017-09-12T11:06:34.600Z,13.60
2017-09-12T11:09:02.108Z,13.50
2017-09-12T11:11:30.380Z,12.30
2017-09-12T11:13:58.790Z,12.10
2017-09-12T11:16:26.312Z,12.10
2017-09-12T11:18:54.579Z,11.90
2017-09-12T11:21:22.035Z,11.80
2017-09-12T11:23:50.287Z,12.10
2017-09-12T11:26:17.750Z,12.10
2017-09-12T11:28:45.247Z,12.20
2017-09-12T11:31:13.492Z,12.30
2017-09-12T11:33:40.998Z,12.30
2017-09-12T11:36:08.521Z,12.30
2017-09-12T11:38:35.994Z,12.60
2017-09-12T11:41:04.251Z,13.00
2017-09-12T11:43:31.725Z,13.00
2017-09-12T11:45:59.995Z,13.30
2017-09-12T11:48:27.474Z,13.30
2017-09-12T11:50:55.740Z,13.70
2017-09-12T11:53:23.968Z,13.30
2017-09-12T11:55:51.442Z,13.30
2017-09-12T11:58:18.945Z,13.40
2017-09-12T12:00:47.180Z,13.80
2017-09-12T12:03:14.679Z,13.80
2017-09-12T12:05:42.213Z,13.90
2017-09-12T12:08:09.706Z,14.30
2017-09-12T12:10:37.194Z,14.40
2017-09-12T12:13:04.667Z,14.30
2017-09-12T12:15:32.168Z,14.40
2017-09-12T12:18:00.429Z,14.20
2017-09-12T12:20:28.695Z,14.30
2017-09-12T12:22:56.185Z,14.20
2017-09-12T12:25:23.659Z,14.40
2017-09-12T12:27:51.159Z,14.70
2017-09-12T12:30:18.651Z,14.40
2017-09-12T12:32:46.894Z,14.50
2017-09-12T12:35:15.173Z,14.50
2017-09-12T12:37:42.650Z,14.50
2017-09-12T12:40:10.142Z,14.70
2017-09-12T12:42:37.612Z,14.60
2017-09-12T12:45:05.105Z,14.30
2017-09-12T12:47:32.602Z,14.30
2017-09-12T12:50:00.830Z,14.10
2017-09-12T12:52:28.331Z,14.00
2017-09-12T12:54:56.579Z,13.90
2017-09-12T12:57:24.083Z,13.90
2017-09-12T12:59:51.556Z,13.60
2017-09-12T13:02:19.064Z,13.60
2017-09-12T13:04:46.548Z,13.70
2017-09-12T13:07:14.784Z,14.00
2017-09-12T13:09:42.279Z,14.00
2017-09-12T13:12:10.551Z,14.50
2017-09-12T13:14:38.816Z,14.60
2017-09-12T13:17:07.106Z,14.80
2017-09-12T13:19:35.363Z,15.00
2017-09-12T13:22:02.886Z,15.00
2017-09-12T13:24:30.379Z,15.00
2017-09-12T13:26:57.879Z,14.60
2017-09-12T13:29:26.112Z,14.10
2017-09-12T13:31:53.592Z,14.10
2017-09-12T13:34:21.872Z,13.90
2017-09-12T13:36:50.110Z,13.70
2017-09-12T13:39:17.604Z,13.70
2017-09-12T13:41:45.850Z,12.90
2017-09-12T13:44:13.377Z,12.80
2017-09-12T13:46:40.867Z,12.50
2017-09-12T13:49:08.346Z,12.50
2017-09-12T13:51:35.852Z,12.50
2017-09-12T13:54:03.317Z,12.40
2017-09-12T13:56:30.816Z,12.40
2017-09-12T13:58:58.307Z,12.30
2017-09-12T14:01:26.570Z,12.70
2017-09-12T14:03:54.805Z,13.10
2017-09-12T14:06:22.264Z,13.00
2017-09-12T14:08:49.759Z,13.30
2017-09-12T14:11:18.013Z,13.30
2017-09-12T14:13:45.503Z,13.30
2017-09-12T14:16:13.739Z,14.00
2017-09-12T14:18:41.246Z,14.00
2017-09-12T14:21:09.475Z,13.80
2017-09-12T14:23:36.981Z,13.80
2017-09-12T14:26:04.457Z,14.10
2017-09-12T14:28:31.944Z,13.90
2017-09-12T14:30:59.416Z,14.00
2017-09-12T14:33:26.928Z,14.30
2017-09-12T14:35:54.405Z,14.20
2017-09-12T14:38:21.871Z,14.10
2017-09-12T14:40:49.386Z,13.60
2017-09-12T14:43:17.622Z,13.50
2017-09-12T14:45:45.137Z,13.50
2017-09-12T14:48:12.623Z,13.60
2017-09-12T14:50:40.088Z,13.80
2017-09-12T14:53:08.530Z,13.80
2017-09-12T14:55:36.007Z,13.80
2017-09-12T14:58:03.529Z,14.10
2017-09-12T15:00:31.759Z,14.10
2017-09-12T15:02:59.262Z,14.10
2017-09-12T15:05:27.511Z,14.20
2017-09-12T15:07:55.007Z,14.10
2017-09-12T15:10:23.272Z,14.40
2017-09-12T15:12:51.510Z,14.50
2017-09-12T15:15:19.016Z,14.50
2017-09-12T15:17:47.248Z,14.30
2017-09-12T15:20:14.736Z,14.30
2017-09-12T15:22:42.969Z,14.40
2017-09-12T15:25:10.449Z,14.40
2017-09-12T15:27:37.990Z,14.20
2017-09-12T15:30:05.476Z,14.10
2017-09-12T15:32:32.984Z,14.10
2017-09-12T15:35:00.457Z,14.20
2017-09-12T15:37:27.962Z,14.20
2017-09-12T15:39:55.443Z,14.30
2017-09-12T15:42:22.943Z,14.60
2017-09-12T15:44:50.445Z,14.50
2017-09-12T15:47:18.699Z,14.40
2017-09-12T15:49:46.181Z,14.40
2017-09-12T15:52:14.420Z,14.30
2017-09-12T15:54:41.932Z,14.20
2017-09-12T15:57:10.187Z,14.10
2017-09-12T15:59:38.436Z,14.00
2017-09-12T16:02:05.946Z,13.90
2017-09-12T16:04:34.177Z,13.60
2017-09-12T16:07:01.707Z,13.60
2017-09-12T16:09:29.168Z,13.70
2017-09-12T16:11:56.660Z,13.50
2017-09-12T16:14:24.168Z,13.50
2017-09-12T16:16:51.658Z,13.50
2017-09-12T16:19:19.175Z,13.50
2017-09-12T16:21:46.691Z,13.40
2017-09-12T16:24:14.164Z,13.30
2017-09-12T16:26:41.658Z,13.30
2017-09-12T16:29:09.165Z,13.30
2017-09-12T16:31:37.027Z,13.00
2017-09-12T16:34:04.524Z,13.10
2017-09-12T16:36:32.782Z,13.10
2017-09-12T16:39:00.328Z,13.10
2017-09-12T16:41:27.844Z,13.10
2017-09-12T16:43:55.335Z,13.10
2017-09-12T16:46:22.848Z,13.00
2017-09-12T16:48:50.330Z,12.90
2017-09-12T16:51:17.861Z,12.90
2017-09-12T16:53:46.098Z,12.70
2017-09-12T16:56:13.557Z,12.70
2017-09-12T16:58:41.056Z,12.70
2017-09-12T17:01:09.329Z,12.50
2017-09-12T17:03:37.625Z,12.50
2017-09-12T17:06:05.080Z,12.50
2017-09-12T17:08:32.578Z,12.40
2017-09-12T17:11:00.111Z,12.30
2017-09-12T17:13:27.580Z,12.30
2017-09-12T17:15:55.094Z,12.30
2017-09-12T17:18:23.344Z,12.20
2017-09-12T17:20:50.896Z,12.20
2017-09-12T17:23:18.370Z,12.20
2017-09-12T17:25:45.900Z,12.20
2017-09-12T17:28:13.366Z,12.20
2017-09-12T17:30:40.839Z,12.10
2017-09-12T17:33:08.481Z,12.20
2017-09-12T17:35:36.335Z,12.10
2017-09-12T17:38:04.300Z,12.10
2017-09-12T17:40:33.095Z,12.10
2017-09-12T17:43:00.955Z,12.00
2017-09-12T17:45:28.824Z,11.90
2017-09-12T17:47:56.693Z,11.80
2017-09-12T17:50:24.559Z,11.70
2017-09-12T17:52:52.534Z,11.70
2017-09-12T17:55:20.405Z,11.60
2017-09-12T17:57:48.264Z,11.60
2017-09-12T18:00:16.136Z,11.50
2017-09-12T18:02:44.011Z,11.50
2017-09-12T18:05:12.691Z,11.60
2017-09-12T18:07:40.552Z,11.60
2017-09-12T18:10:08.170Z,11.70
2017-09-12T18:12:35.660Z,11.60
2017-09-12T18:15:03.147Z,11.70
2017-09-12T18:17:30.656Z,11.60
2017-09-12T18:19:58.903Z,11.60
2017-09-12T18:22:26.411Z,11.60
2017-09-12T18:24:53.899Z,11.50
2017-09-12T18:27:21.421Z,11.40
2017-09-12T18:29:49.679Z,11.40
2017-09-12T18:32:17.175Z,11.40
2017-09-12T18:34:44.839Z,11.30
2017-09-12T18:37:12.349Z,11.30
2017-09-12T18:39:39.962Z,11.30
2017-09-12T18:42:07.533Z,11.10
2017-09-12T18:44:35.165Z,10.90
2017-09-12T18:47:02.731Z,11.00
2017-09-12T18:49:31.107Z,10.90
2017-09-12T18:51:58.615Z,10.80
2017-09-12T18:54:26.102Z,10.90
2017-09-12T18:56:54.368Z,10.80
2017-09-12T18:59:21.860Z,10.70
2017-09-12T19:01:49.360Z,10.50
2017-09-12T19:04:16.854Z,10.30
2017-09-12T19:06:45.183Z,10.30
2017-09-12T19:09:12.667Z,10.30
2017-09-12T19:11:40.168Z,10.10
2017-09-12T19:14:08.416Z,10.20
2017-09-12T19:16:35.933Z,10.20
2017-09-12T19:19:03.415Z,10.20
2017-09-12T19:21:30.896Z,9.90
2017-09-12T19:23:58.503Z,9.70
2017-09-12T19:26:25.988Z,9.80
2017-09-12T19:28:53.468Z,10.00
2017-09-12T19:31:20.944Z,9.90
2017-09-12T19:33:48.475Z,9.80
2017-09-12T19:36:15.971Z,9.70
2017-09-12T19:38:44.217Z,10.00
2017-09-12T19:41:11.758Z,10.00
2017-09-12T19:43:39.238Z,10.10
2017-09-12T19:46:06.702Z,10.00
2017-09-12T19:48:34.197Z,9.70
2017-09-12T19:51:01.684Z,9.50
2017-09-12T19:53:29.222Z,9.50
2017-09-12T19:55:56.716Z,9.70
2017-09-12T19:58:24.175Z,9.70
2017-09-12T20:00:51.689Z,9.70
2017-09-12T20:03:19.189Z,9.70
2017-09-12T20:05:46.726Z,9.60
2017-09-12T20:08:14.200Z,9.30
2017-09-12T20:10:41.701Z,9.20
2017-09-12T20:13:09.985Z,9.30
2017-09-12T20:15:38.227Z,9.40
2017-09-12T20:18:05.753Z,9.40
2017-09-12T20:20:33.228Z,9.50
2017-09-12T20:23:00.703Z,9.50
2017-09-12T20:25:28.259Z,9.60
2017-09-12T20:27:55.722Z,9.50
2017-09-12T20:30:23.553Z,9.50
2017-09-12T20:32:53.868Z,9.30
2017-09-12T20:35:21.367Z,9.30
2017-09-12T20:37:48.884Z,9.20
2017-09-12T20:40:16.466Z,9.30
2017-09-12T20:42:44.071Z,9.40
2017-09-12T20:45:11.561Z,9.40
2017-09-12T20:47:39.788Z,9.40
2017-09-12T20:50:08.047Z,9.40
2017-09-12T20:52:35.513Z,9.40
2017-09-12T20:55:03.011Z,9.50
2017-09-12T20:57:31.250Z,9.50
2017-09-12T20:59:58.738Z,9.40
2017-09-12T21:02:27.979Z,9.30
2017-09-12T21:04:55.454Z,9.20
2017-09-12T21:07:22.941Z,9.30
2017-09-12T21:09:50.450Z,9.20
2017-09-12T21:12:17.907Z,9.10
2017-09-12T21:14:45.429Z,9.10
2017-09-12T21:17:12.892Z,9.00
2017-09-12T21:19:41.160Z,9.30
2017-09-12T21:22:08.631Z,9.20
2017-09-12T21:24:36.908Z,9.20
2017-09-12T21:27:05.174Z,9.20
2017-09-12T21:29:32.648Z,9.20
2017-09-12T21:32:00.916Z,9.20
2017-09-12T21:34:29.189Z,9.10
2017-09-12T21:36:56.643Z,9.10
2017-09-12T21:39:24.891Z,9.20
2017-09-12T21:41:52.375Z,9.20
2017-09-12T21:44:20.619Z,9.10
2017-09-12T21:46:48.125Z,9.10
2017-09-12T21:49:16.420Z,9.10
2017-09-12T21:51:44.659Z,9.00
2017-09-12T21:54:12.115Z,9.00
2017-09-12T21:56:39.641Z,9.20
2017-09-12T21:59:07.096Z,9.20
2017-09-12T22:01:35.130Z,9.20
2017-09-12T22:04:03.416Z,9.10
2017-09-12T22:06:30.879Z,9.10
2017-09-12T22:08:58.359Z,9.10
2017-09-12T22:11:25.818Z,9.00
2017-09-12T22:13:53.312Z,8.90
2017-09-12T22:16:20.831Z,8.80
2017-09-12T22:18:48.308Z,8.70
2017-09-12T22:21:15.795Z,8.70
2017-09-12T22:23:43.258Z,8.60
2017-09-12T22:26:11.521Z,8.50
2017-09-12T22:28:39.021Z,8.50
2017-09-12T22:31:06.516Z,8.50
2017-09-12T22:33:33.983Z,8.50
2017-09-12T22:36:01.448Z,8.60
2017-09-12T22:38:28.934Z,8.50
2017-09-12T22:40:57.163Z,8.80
2017-09-12T22:43:24.663Z,8.80
2017-09-12T22:45:52.140Z,8.90
2017-09-12T22:48:20.391Z,8.80
2017-09-12T22:50:47.891Z,8.80
2017-09-12T22:53:15.368Z,8.90
2017-09-12T22:55:42.863Z,8.70
2017-09-12T22:58:10.322Z,8.80
2017-09-12T23:00:37.829Z,8.80
2017-09-12T23:03:05.327Z,8.80
2017-09-12T23:05:32.829Z,8.50
2017-09-12T23:08:01.112Z,8.60
2017-09-12T23:10:28.593Z,8.60
2017-09-12T23:12:56.060Z,8.50
2017-09-12T23:15:23.550Z,8.50
2017-09-12T23:17:51.039Z,8.50
2017-09-12T23:20:19.317Z,8.40
2017-09-12T23:22:47.535Z,8.40
2017-09-12T23:25:15.035Z,8.30
2017-09-12T23:27:42.512Z,7.90
2017-09-12T23:30:10.023Z,7.80
2017-09-12T23:32:37.618Z,7.90
2017-09-12T23:35:05.847Z,7.80
2017-09-12T23:37:34.136Z,7.80
2017-09-12T23:40:01.627Z,7.80
2017-09-12T23:42:29.918Z,8.00
2017-09-12T23:44:58.159Z,8.00
2017-09-12T23:47:25.619Z,8.00
2017-09-12T23:49:53.116Z,8.10
2017-09-12T23:52:20.592Z,8.20
2017-09-12T23:54:48.098Z,8.10
2017-09-12T23:57:15.567Z,8.10
2017-09-12T23:59:43.800Z,7.90
